Time;durP1;ratioP1;P1;durP2;ratioP2;P2;SDS_P1;SDS_P2;PMS_P1;PMS_P2;Temp;Humidity;BMP_temperature;BMP_pressure;BME280_temperature;BME280_humidity;BME280_pressure;Samples;Min_cycle;Max_cycle;Signal;HPM_P1;HPM_P2
2022/03/06 00:02:00;;;;;;;14.50;10.93;;;;;;;1.47;64.79;95496.87;4314886;32;20292;-62
2022/03/06 00:04:25;;;;;;;13.87;10.57;;;;;;;1.50;64.88;95489.37;4314498;32;20253;-62
2022/03/06 00:06:51;;;;;;;14.47;10.77;;;;;;;1.58;64.61;95498.69;4301563;33;20352;-62
2022/03/06 00:09:16;;;;;;;15.17;10.73;;;;;;;1.46;65.09;95492.69;4302293;33;20193;-62
2022/03/06 00:11:41;;;;;;;14.07;11.03;;;;;;;1.43;65.53;95493.19;4317600;33;20262;-62
2022/03/06 00:14:07;;;;;;;14.23;11.20;;;;;;;1.40;65.46;95496.25;4316445;33;20208;-61
2022/03/06 00:16:32;;;;;;;14.37;11.77;;;;;;;1.47;65.90;95494.28;4302521;33;20194;-62
2022/03/06 00:18:57;;;;;;;16.47;10.40;;;;;;;1.17;66.21;95492.66;4315927;33;20190;-62
2022/03/06 00:21:23;;;;;;;14.73;10.87;;;;;;;1.37;66.19;95492.28;4302430;33;20202;-62
2022/03/06 00:23:48;;;;;;;16.77;11.43;;;;;;;1.34;66.34;95492.72;4315897;33;20257;-61
2022/03/06 00:26:14;;;;;;;12.77;10.37;;;;;;;0.98;67.40;95502.44;4316367;33;20186;-61
2022/03/06 00:28:39;;;;;;;14.33;10.77;;;;;;;0.94;67.77;95500.53;4302482;33;20194;-62
2022/03/06 00:31:05;;;;;;;13.77;10.40;;;;;;;1.14;67.37;95500.94;4316110;33;20190;-61
2022/03/06 00:33:31;;;;;;;15.03;11.00;;;;;;;1.10;67.58;95504.25;4315238;33;20186;-61
2022/03/06 00:35:56;;;;;;;14.90;11.90;;;;;;;1.17;67.37;95505.72;4302568;33;20190;-61
2022/03/06 00:38:22;;;;;;;17.23;11.30;;;;;;;0.85;68.34;95497.44;4305519;33;20305;-62
2022/03/06 00:40:47;;;;;;;14.87;11.17;;;;;;;0.95;68.18;95502.91;4305898;33;20193;-62
2022/03/06 00:43:13;;;;;;;14.07;11.20;;;;;;;1.06;68.04;95509.13;4307457;33;20233;-61
2022/03/06 00:45:38;;;;;;;14.23;11.40;;;;;;;0.97;68.27;95505.28;4306041;33;20182;-61
2022/03/06 00:48:04;;;;;;;14.13;11.70;;;;;;;0.79;68.87;95490.53;4305186;33;20174;-62
2022/03/06 00:50:29;;;;;;;16.50;11.30;;;;;;;0.93;68.96;95504.16;4305410;33;20186;-62
2022/03/06 00:52:57;;;;;;;14.53;11.17;;;;;;;0.92;68.92;95497.34;4304832;33;20233;-61
2022/03/06 00:55:22;;;;;;;14.98;11.52;;;;;;;1.01;68.42;95501.22;4305976;33;20228;-62
2022/03/06 00:57:48;;;;;;;17.23;11.93;;;;;;;0.94;68.73;95495.28;4319555;33;20190;-61
2022/03/06 01:00:14;;;;;;;15.90;10.80;;;;;;;1.15;68.40;95494.69;4307167;33;20186;-61
2022/03/06 01:02:39;;;;;;;18.55;12.25;;;;;;;1.38;67.48;95496.47;4319153;33;20252;-62
2022/03/06 01:05:04;;;;;;;14.63;11.03;;;;;;;1.26;67.68;95496.50;4308659;33;20197;-62
2022/03/06 01:07:30;;;;;;;15.27;11.53;;;;;;;1.20;67.91;95499.25;4305539;33;20228;-61
2022/03/06 01:09:55;;;;;;;15.40;11.97;;;;;;;0.99;68.77;95492.81;4304888;33;20269;-62
2022/03/06 01:12:21;;;;;;;14.83;10.80;;;;;;;1.28;68.08;95486.59;4305929;33;20256;-61
2022/03/06 01:14:47;;;;;;;14.43;11.93;;;;;;;1.35;67.32;95497.72;4319053;33;20194;-61
2022/03/06 01:17:12;;;;;;;17.47;12.00;;;;;;;1.27;68.09;95494.66;4321171;33;20212;-62
2022/03/06 01:19:38;;;;;;;13.87;11.27;;;;;;;1.28;67.93;95499.66;4318873;33;20264;-61
2022/03/06 01:22:03;;;;;;;18.03;12.43;;;;;;;1.23;68.04;95499.59;4302482;33;20224;-61
2022/03/06 01:24:29;;;;;;;15.53;11.47;;;;;;;1.11;68.39;95498.00;4304421;33;20310;-62
2022/03/06 01:26:54;;;;;;;13.20;10.97;;;;;;;0.93;69.30;95498.94;4304289;33;20257;-62
2022/03/06 01:29:22;;;;;;;14.63;11.40;;;;;;;1.09;69.15;95500.03;4316927;33;20205;-62
2022/03/06 01:31:48;;;;;;;17.42;12.07;;;;;;;0.81;69.86;95496.34;4300995;33;20192;-61
2022/03/06 01:34:13;;;;;;;16.23;12.03;;;;;;;0.76;70.41;95498.03;4303984;33;20241;-62
2022/03/06 01:36:39;;;;;;;15.80;11.57;;;;;;;0.92;70.12;95492.12;4304119;33;20341;-61
2022/03/06 01:39:04;;;;;;;15.47;12.00;;;;;;;0.95;69.91;95502.09;4305634;33;20189;-61
2022/03/06 01:41:34;;;;;;;17.33;12.33;;;;;;;0.93;69.75;95499.72;4305452;33;20190;-61
2022/03/06 01:43:59;;;;;;;14.87;12.02;;;;;;;0.64;70.98;95496.19;4305491;33;20207;-61
2022/03/06 01:46:25;;;;;;;17.43;12.30;;;;;;;0.71;71.19;95500.53;4318325;33;20208;-61
2022/03/06 01:48:50;;;;;;;16.33;12.40;;;;;;;0.53;71.88;95504.81;4301758;33;20191;-62
2022/03/06 01:51:15;;;;;;;16.77;11.30;;;;;;;0.37;72.60;95499.47;4319375;33;20195;-62
2022/03/06 01:53:41;;;;;;;20.13;13.33;;;;;;;0.56;72.29;95491.34;4305186;33;20182;-61
2022/03/06 01:56:07;;;;;;;16.93;12.30;;;;;;;0.60;72.15;95500.31;4318243;33;20303;-62
2022/03/06 01:58:32;;;;;;;14.70;11.90;;;;;;;0.52;72.53;95497.22;4318412;33;20242;-62
2022/03/06 02:00:57;;;;;;;19.30;13.37;;;;;;;0.44;72.80;95507.97;4318444;33;20274;-61
2022/03/06 02:03:23;;;;;;;20.57;11.53;;;;;;;0.60;72.36;95505.53;4318553;33;20252;-62
2022/03/06 02:05:48;;;;;;;18.23;12.97;;;;;;;0.75;71.83;95496.44;4304817;33;20199;-62
2022/03/06 02:08:14;;;;;;;17.67;12.90;;;;;;;0.72;72.09;95495.06;4319978;33;20204;-62
2022/03/06 02:10:39;;;;;;;17.10;12.07;;;;;;;0.45;72.89;95494.72;4318102;33;20198;-61
2022/03/06 02:13:05;;;;;;;16.47;11.90;;;;;;;0.58;72.78;95497.13;4318474;33;20189;-62
2022/03/06 02:15:31;;;;;;;19.97;12.13;;;;;;;0.72;72.36;95491.66;4318336;33;20198;-62
2022/03/06 02:17:57;;;;;;;15.60;12.65;;;;;;;0.66;72.54;95490.75;4297007;33;20279;-62
2022/03/06 02:20:24;;;;;;;17.17;12.60;;;;;;;0.63;72.39;95485.97;4314280;33;20241;-62
2022/03/06 02:22:52;;;;;;;18.25;12.80;;;;;;;0.44;72.69;95495.72;4319690;33;20191;-61
2022/03/06 02:25:26;;;;;;;17.85;12.00;;;;;;;0.54;73.12;95485.53;4318140;33;20186;-62
2022/03/06 02:27:55;;;;;;;16.02;12.13;;;;;;;0.46;73.11;95483.25;4303130;33;20241;-62
2022/03/06 02:30:23;;;;;;;16.75;12.40;;;;;;;0.94;71.58;95479.63;4304686;33;20175;-61
2022/03/06 02:32:50;;;;;;;16.58;12.70;;;;;;;0.82;71.69;95474.44;4292358;33;20196;-62
2022/03/06 02:35:17;;;;;;;18.85;13.98;;;;;;;0.94;71.61;95483.03;4319743;33;20191;-61
2022/03/06 02:37:43;;;;;;;17.42;12.20;;;;;;;0.98;71.15;95486.78;4303494;33;20204;-62
2022/03/06 02:40:11;;;;;;;16.80;12.33;;;;;;;0.89;71.68;95479.50;4302366;33;20190;-62
2022/03/06 02:42:39;;;;;;;19.35;13.45;;;;;;;1.01;71.38;95480.31;4317477;33;20300;-62
2022/03/06 02:45:09;;;;;;;17.48;13.20;;;;;;;0.98;70.92;95486.00;4317016;33;20222;-62
2022/03/06 02:47:35;;;;;;;15.13;12.65;;;;;;;0.87;71.45;95490.19;4317541;33;20203;-62
2022/03/06 02:50:02;;;;;;;17.60;13.17;;;;;;;0.84;71.77;95495.84;4297095;33;20190;-61
2022/03/06 02:52:28;;;;;;;16.20;12.93;;;;;;;0.83;71.99;95489.03;4304458;33;20249;-61
2022/03/06 02:54:53;;;;;;;17.67;13.17;;;;;;;1.00;71.08;95491.78;4301944;33;20182;-62
2022/03/06 02:57:19;;;;;;;18.00;14.07;;;;;;;0.90;71.70;95494.94;4315080;33;20210;-61
2022/03/06 02:59:44;;;;;;;17.93;13.53;;;;;;;0.95;71.67;95491.66;4316215;33;20182;-62
2022/03/06 03:02:10;;;;;;;18.07;13.30;;;;;;;0.83;71.98;95493.50;4301470;33;20193;-62
2022/03/06 03:04:39;;;;;;;18.50;13.17;;;;;;;1.07;71.20;95499.47;4295133;33;20224;-62
2022/03/06 03:07:08;;;;;;;16.40;12.70;;;;;;;1.19;70.87;95495.84;4315097;33;20194;-61
2022/03/06 03:09:34;;;;;;;17.83;13.27;;;;;;;1.19;70.41;95493.22;4301744;33;20214;-61
2022/03/06 03:12:00;;;;;;;17.45;13.45;;;;;;;0.90;71.51;95502.78;4315022;33;20276;-61
2022/03/06 03:14:25;;;;;;;17.50;13.37;;;;;;;1.09;71.00;95498.22;4314841;33;20249;-61
2022/03/06 03:16:51;;;;;;;15.60;12.73;;;;;;;0.78;72.18;95502.00;4315211;33;20204;-61
2022/03/06 03:19:17;;;;;;;19.47;13.27;;;;;;;0.55;72.98;95502.78;4315891;33;20182;-61
2022/03/06 03:21:43;;;;;;;17.40;12.68;;;;;;;0.60;73.28;95510.75;4318763;33;20187;-61
2022/03/06 03:24:09;;;;;;;19.20;13.70;;;;;;;0.58;73.37;95518.00;4291644;33;20212;-61
2022/03/06 03:26:34;;;;;;;16.43;12.53;;;;;;;0.67;73.02;95511.41;4317312;33;20209;-61
2022/03/06 03:28:59;;;;;;;26.60;18.03;;;;;;;0.76;72.68;95504.03;4303943;33;20178;-61
2022/03/06 03:31:25;;;;;;;19.50;13.57;;;;;;;0.79;72.43;95508.81;4317299;33;20217;-61
2022/03/06 03:33:50;;;;;;;19.00;13.57;;;;;;;0.84;72.11;95501.06;4303635;33;20186;-61
2022/03/06 03:36:15;;;;;;;17.70;13.00;;;;;;;0.95;72.06;95497.69;4316948;33;20186;-61
2022/03/06 03:38:41;;;;;;;17.40;13.00;;;;;;;0.93;71.67;95504.16;4315175;33;20178;-61
2022/03/06 03:41:07;;;;;;;19.33;13.30;;;;;;;0.65;72.80;95518.66;4295398;33;20265;-61
2022/03/06 03:43:33;;;;;;;19.25;14.23;;;;;;;0.44;73.07;95524.44;4315090;33;20225;-61
2022/03/06 03:45:58;;;;;;;19.00;12.83;;;;;;;0.67;73.12;95527.06;4314898;33;20209;-61
2022/03/06 03:48:25;;;;;;;19.20;12.93;;;;;;;0.55;72.91;95528.88;4317081;33;20231;-61
2022/03/06 03:50:52;;;;;;;18.52;12.43;;;;;;;0.62;73.35;95534.78;4303597;33;20190;-61
2022/03/06 03:53:18;;;;;;;18.95;14.00;;;;;;;0.54;73.59;95527.28;4303122;33;20201;-61
2022/03/06 03:55:43;;;;;;;16.80;13.43;;;;;;;0.39;74.42;95534.78;4297481;33;20250;-61
2022/03/06 03:58:08;;;;;;;19.37;13.30;;;;;;;0.54;73.73;95532.50;4303072;33;20257;-61
2022/03/06 04:00:33;;;;;;;16.90;12.97;;;;;;;0.74;73.20;95534.81;4316796;33;20198;-61
2022/03/06 04:02:59;;;;;;;19.17;13.47;;;;;;;0.64;73.23;95532.75;4301495;33;20186;-61
2022/03/06 04:05:24;;;;;;;18.97;13.07;;;;;;;0.59;73.58;95535.25;4316970;33;20178;-61
2022/03/06 04:07:50;;;;;;;19.43;13.60;;;;;;;0.71;73.09;95539.69;4316321;33;20216;-62
2022/03/06 04:10:16;;;;;;;18.50;13.20;;;;;;;0.53;73.24;95540.56;4313724;33;20194;-61
2022/03/06 04:12:41;;;;;;;16.90;13.07;;;;;;;0.47;73.98;95531.81;4316267;33;20244;-62
2022/03/06 04:15:07;;;;;;;16.43;12.93;;;;;;;0.56;73.36;95540.13;4316465;33;20198;-61
2022/03/06 04:17:32;;;;;;;15.90;12.47;;;;;;;0.91;72.39;95532.31;4302875;33;20248;-62
2022/03/06 04:19:58;;;;;;;18.40;13.23;;;;;;;0.68;72.55;95539.09;4301461;33;20202;-61
2022/03/06 04:22:23;;;;;;;20.00;13.77;;;;;;;0.75;72.73;95548.66;4316855;33;20193;-61
2022/03/06 04:24:48;;;;;;;18.50;14.07;;;;;;;0.84;72.53;95542.84;4301704;33;20186;-61
2022/03/06 04:27:14;;;;;;;18.63;12.93;;;;;;;0.56;73.06;95551.34;4318498;33;20195;-61
2022/03/06 04:29:39;;;;;;;19.57;13.97;;;;;;;0.55;73.35;95559.41;4316398;33;20214;-61
2022/03/06 04:32:04;;;;;;;19.33;13.50;;;;;;;0.61;73.24;95555.91;4316826;33;20281;-62
2022/03/06 04:34:30;;;;;;;19.43;13.80;;;;;;;0.48;73.50;95554.28;4302247;33;20210;-62
2022/03/06 04:36:55;;;;;;;18.53;13.67;;;;;;;0.47;73.77;95555.31;4303431;33;20213;-61
2022/03/06 04:39:20;;;;;;;18.93;13.50;;;;;;;0.11;75.19;95560.66;4302982;33;20232;-61
2022/03/06 04:41:46;;;;;;;19.50;13.17;;;;;;;0.28;74.89;95564.22;4304626;33;20200;-61
2022/03/06 04:44:13;;;;;;;20.40;13.37;;;;;;;0.48;74.22;95553.47;4316232;33;20208;-61
2022/03/06 04:46:39;;;;;;;19.23;14.00;;;;;;;0.56;73.65;95553.97;4302883;33;20269;-61
2022/03/06 04:49:04;;;;;;;18.77;13.87;;;;;;;0.52;73.90;95549.41;4303387;33;20198;-61
2022/03/06 04:51:30;;;;;;;20.20;13.83;;;;;;;0.39;73.92;95558.25;4316211;33;20257;-62
2022/03/06 04:53:55;;;;;;;16.67;12.97;;;;;;;0.41;74.24;95553.59;4316489;33;20205;-61
2022/03/06 04:56:20;;;;;;;17.83;13.20;;;;;;;0.61;73.66;95550.69;4315708;33;20215;-61
2022/03/06 04:58:46;;;;;;;17.70;12.37;;;;;;;0.63;73.30;95557.25;4304220;33;20204;-61
2022/03/06 05:01:11;;;;;;;20.50;14.37;;;;;;;0.60;73.02;95560.34;4302863;33;20191;-61
2022/03/06 05:03:36;;;;;;;18.40;13.43;;;;;;;0.50;73.49;95557.47;4301629;33;20325;-61
2022/03/06 05:06:05;;;;;;;17.20;12.37;;;;;;;0.46;73.70;95558.94;4303097;33;20241;-62
2022/03/06 05:08:30;;;;;;;16.27;13.07;;;;;;;0.42;74.12;95559.59;4303054;33;20182;-61
2022/03/06 05:10:55;;;;;;;19.30;13.67;;;;;;;0.27;74.55;95566.03;4315896;33;20236;-61
2022/03/06 05:13:22;;;;;;;17.60;13.13;;;;;;;0.39;74.14;95560.06;4302851;33;20208;-61
2022/03/06 05:15:48;;;;;;;16.85;13.45;;;;;;;0.40;74.12;95567.66;4302797;33;20194;-60
2022/03/06 05:18:14;;;;;;;15.63;12.53;;;;;;;0.39;74.23;95560.84;4304327;33;20220;-61
2022/03/06 05:20:39;;;;;;;17.70;13.57;;;;;;;0.46;74.11;95556.31;4302167;33;20190;-61
2022/03/06 05:23:05;;;;;;;17.00;12.13;;;;;;;0.56;73.85;95561.00;4303948;33;20186;-61
2022/03/06 05:25:30;;;;;;;19.90;13.13;;;;;;;0.57;73.68;95555.56;4319222;33;20210;-62
2022/03/06 05:27:56;;;;;;;17.73;12.47;;;;;;;0.61;73.17;95559.31;4319566;33;20197;-61
2022/03/06 05:30:21;;;;;;;18.13;12.97;;;;;;;0.61;73.30;95563.75;4315872;33;20232;-61
2022/03/06 05:32:47;;;;;;;19.63;13.30;;;;;;;0.49;73.67;95566.31;4313506;33;20213;-60
2022/03/06 05:35:12;;;;;;;17.27;13.30;;;;;;;0.49;73.42;95563.69;4306724;33;20226;-61
2022/03/06 05:37:38;;;;;;;18.90;13.17;;;;;;;0.53;73.66;95570.06;4318617;33;20198;-61
2022/03/06 05:40:05;;;;;;;17.27;12.32;;;;;;;0.71;72.62;95568.38;4305367;33;20241;-61
2022/03/06 05:42:30;;;;;;;17.55;13.00;;;;;;;0.75;72.38;95565.09;4318600;33;20190;-61
2022/03/06 05:44:56;;;;;;;18.27;13.03;;;;;;;0.87;71.93;95567.72;4299692;33;20201;-61
2022/03/06 05:47:21;;;;;;;16.17;12.60;;;;;;;0.64;72.36;95566.66;4304116;33;20237;-61
2022/03/06 05:49:46;;;;;;;17.77;12.80;;;;;;;0.43;73.13;95580.25;4320308;33;20208;-61
2022/03/06 05:52:12;;;;;;;16.20;12.33;;;;;;;0.51;72.97;95571.31;4305633;33;20190;-61
2022/03/06 05:54:37;;;;;;;16.60;12.43;;;;;;;0.41;72.94;95577.09;4318598;33;20265;-61
2022/03/06 05:57:02;;;;;;;17.23;13.10;;;;;;;0.21;73.56;95579.16;4305078;33;20229;-62
2022/03/06 05:59:28;;;;;;;18.47;13.23;;;;;;;0.16;73.86;95586.88;4318399;33;20194;-61
2022/03/06 06:01:53;;;;;;;18.20;12.33;;;;;;;-0.15;75.14;95588.66;4316682;33;20254;-62
2022/03/06 06:04:19;;;;;;;17.80;12.97;;;;;;;-0.02;74.77;95590.31;4317886;33;20221;-61
2022/03/06 06:06:44;;;;;;;19.10;12.30;;;;;;;0.00;75.01;95588.28;4305613;33;20238;-61
2022/03/06 06:09:10;;;;;;;17.30;12.63;;;;;;;0.09;74.68;95586.94;4318157;33;20190;-61
2022/03/06 06:11:35;;;;;;;17.97;13.17;;;;;;;0.00;74.81;95594.25;4316273;33;20249;-61
2022/03/06 06:14:00;;;;;;;16.60;12.33;;;;;;;0.05;74.64;95591.00;4318677;33;20201;-62
2022/03/06 06:16:26;;;;;;;18.17;12.47;;;;;;;0.13;73.86;95592.53;4316666;33;20190;-61
2022/03/06 06:18:51;;;;;;;15.27;12.27;;;;;;;0.42;72.97;95593.50;4318280;33;20228;-61
2022/03/06 06:21:19;;;;;;;15.67;12.10;;;;;;;0.59;72.10;95589.25;4317784;33;20265;-60
2022/03/06 06:23:44;;;;;;;17.52;12.65;;;;;;;0.28;73.36;95590.28;4319348;33;20246;-61
2022/03/06 06:26:10;;;;;;;17.83;13.13;;;;;;;0.39;72.58;95592.16;4302366;33;20190;-62
2022/03/06 06:28:35;;;;;;;16.77;12.70;;;;;;;0.49;72.35;95587.19;4318552;33;20182;-62
2022/03/06 06:31:01;;;;;;;16.80;12.83;;;;;;;0.57;71.90;95586.88;4301433;33;20198;-62
2022/03/06 06:33:27;;;;;;;16.93;12.93;;;;;;;0.50;71.99;95587.97;4316758;33;20197;-61
2022/03/06 06:35:52;;;;;;;18.25;12.70;;;;;;;0.47;72.14;95593.63;4314991;33;20210;-62
2022/03/06 06:38:18;;;;;;;18.40;13.17;;;;;;;0.73;71.25;95587.22;4317642;33;20209;-62
2022/03/06 06:40:43;;;;;;;15.90;12.33;;;;;;;0.68;70.96;95590.50;4305991;33;20187;-61
2022/03/06 06:43:08;;;;;;;14.57;11.30;;;;;;;0.31;72.49;95589.84;4317780;33;20182;-63
2022/03/06 06:45:34;;;;;;;15.00;12.57;;;;;;;0.56;71.76;95597.53;4304490;33;20209;-62
2022/03/06 06:47:59;;;;;;;16.53;11.77;;;;;;;0.53;71.20;95598.78;4304208;33;20257;-61
2022/03/06 06:50:24;;;;;;;17.23;12.07;;;;;;;0.34;72.35;95599.84;4318220;33;20212;-61
2022/03/06 06:52:50;;;;;;;15.83;11.73;;;;;;;0.29;72.11;95600.50;4299453;33;20182;-61
2022/03/06 06:55:15;;;;;;;17.20;12.73;;;;;;;0.53;72.00;95603.19;4306321;33;20193;-62
2022/03/06 06:57:40;;;;;;;17.07;12.73;;;;;;;0.48;71.63;95597.84;4297787;33;20208;-62
2022/03/06 07:00:07;;;;;;;16.57;12.00;;;;;;;0.47;71.63;95604.88;4304197;33;20225;-61
2022/03/06 07:02:33;;;;;;;16.60;11.63;;;;;;;0.36;71.93;95600.44;4317599;33;20213;-62
2022/03/06 07:04:58;;;;;;;16.10;11.97;;;;;;;0.36;72.11;95595.22;4317973;33;20210;-61
2022/03/06 07:07:24;;;;;;;15.50;11.70;;;;;;;0.66;71.06;95609.00;4317403;33;20297;-62
2022/03/06 07:09:49;;;;;;;17.23;12.53;;;;;;;0.44;71.55;95613.13;4317684;33;20226;-61
2022/03/06 07:12:15;;;;;;;16.67;11.97;;;;;;;0.27;72.47;95617.41;4318787;33;20198;-61
2022/03/06 07:14:40;;;;;;;13.93;11.47;;;;;;;0.37;71.94;95617.69;4315592;33;20271;-61
2022/03/06 07:17:05;;;;;;;16.70;12.00;;;;;;;0.20;72.25;95620.13;4303560;33;20204;-61
2022/03/06 07:19:31;;;;;;;19.33;12.83;;;;;;;0.21;72.49;95621.69;4316944;33;20217;-61
2022/03/06 07:21:56;;;;;;;17.00;11.63;;;;;;;0.42;72.12;95622.22;4317067;33;20309;-62
2022/03/06 07:24:21;;;;;;;15.70;12.10;;;;;;;0.33;72.04;95626.97;4316856;33;20205;-62
2022/03/06 07:26:47;;;;;;;18.10;11.67;;;;;;;0.30;72.13;95625.59;4303457;33;20194;-54
2022/03/06 07:29:12;;;;;;;18.77;12.83;;;;;;;0.22;72.48;95622.47;4317954;33;20183;-61
2022/03/06 07:31:37;;;;;;;15.20;11.50;;;;;;;0.34;72.32;95626.75;4302987;33;20216;-61
2022/03/06 07:34:03;;;;;;;15.80;11.10;;;;;;;0.50;71.48;95625.31;4302500;33;20221;-61
2022/03/06 07:36:28;;;;;;;16.47;11.93;;;;;;;0.87;70.40;95612.09;4314510;33;20201;-62
2022/03/06 07:38:54;;;;;;;17.87;11.93;;;;;;;0.62;70.16;95620.91;4316709;33;20191;-62
2022/03/06 07:41:19;;;;;;;14.03;11.20;;;;;;;0.72;69.78;95616.97;4302032;33;20191;-61
2022/03/06 07:43:45;;;;;;;16.93;11.03;;;;;;;0.95;69.57;95622.22;4316529;33;20246;-62
2022/03/06 07:46:10;;;;;;;15.23;11.03;;;;;;;0.94;69.26;95620.63;4313348;33;20213;-62
2022/03/06 07:48:36;;;;;;;14.87;10.80;;;;;;;0.75;69.36;95621.75;4302382;33;20244;-62
2022/03/06 07:51:05;;;;;;;16.10;12.00;;;;;;;0.74;70.15;95625.37;4303374;33;20194;-62
2022/03/06 07:53:30;;;;;;;15.27;11.48;;;;;;;0.87;69.55;95619.94;4316674;33;20194;-61
2022/03/06 07:55:56;;;;;;;14.20;11.10;;;;;;;1.00;69.24;95627.59;4317201;32;20205;-61
2022/03/06 07:58:21;;;;;;;14.67;10.80;;;;;;;1.14;68.72;95615.09;4303534;33;20237;-62
2022/03/06 08:00:46;;;;;;;16.33;12.50;;;;;;;0.86;68.56;95618.34;4304000;33;20220;-61
2022/03/06 08:03:12;;;;;;;18.23;10.80;;;;;;;0.92;69.15;95620.88;4316102;33;20208;-61
2022/03/06 08:05:38;;;;;;;15.60;11.73;;;;;;;1.01;69.04;95623.94;4317037;33;20230;-62
2022/03/06 08:08:03;;;;;;;13.23;10.43;;;;;;;1.17;68.16;95620.66;4316909;33;20225;-62
2022/03/06 08:10:29;;;;;;;14.37;10.83;;;;;;;1.02;67.44;95622.94;4307704;33;20212;-62
2022/03/06 08:12:54;;;;;;;14.63;10.30;;;;;;;1.07;67.42;95628.25;4316601;33;20213;-61
2022/03/06 08:15:21;;;;;;;12.33;9.23;;;;;;;1.00;67.26;95631.00;4303243;33;20194;-61
2022/03/06 08:17:47;;;;;;;12.48;9.90;;;;;;;0.98;67.08;95627.81;4301298;33;20212;-62
2022/03/06 08:20:12;;;;;;;12.67;10.10;;;;;;;0.87;66.97;95633.78;4304269;33;20190;-62
2022/03/06 08:22:38;;;;;;;11.97;10.33;;;;;;;0.66;67.73;95631.69;4302923;33;20212;-61
2022/03/06 08:25:05;;;;;;;14.43;10.03;;;;;;;0.69;67.49;95639.88;4316431;33;20229;-62
2022/03/06 08:27:32;;;;;;;14.93;10.63;;;;;;;0.69;67.61;95636.47;4303092;33;20236;-62
2022/03/06 08:29:57;;;;;;;13.70;10.75;;;;;;;0.77;67.57;95643.22;4316666;33;20193;-62
2022/03/06 08:32:22;;;;;;;12.87;9.83;;;;;;;0.92;67.12;95638.34;4298802;33;20244;-61
2022/03/06 08:34:51;;;;;;;12.90;10.13;;;;;;;1.03;66.60;95629.75;4303537;33;20201;-62
2022/03/06 08:37:17;;;;;;;16.23;11.32;;;;;;;1.10;66.52;95625.19;4304455;33;20186;-62
2022/03/06 08:39:42;;;;;;;17.23;10.98;;;;;;;1.06;66.44;95631.88;4316366;33;20224;-61
2022/03/06 08:42:08;;;;;;;13.13;9.90;;;;;;;1.15;66.47;95627.13;4316473;33;20182;-62
2022/03/06 08:44:33;;;;;;;12.87;10.00;;;;;;;1.19;66.09;95631.69;4303191;33;20248;-61
2022/03/06 08:46:58;;;;;;;15.00;11.20;;;;;;;1.27;64.90;95628.72;4303171;33;20190;-62
2022/03/06 08:49:24;;;;;;;11.57;9.50;;;;;;;1.43;64.80;95624.66;4316766;33;20220;-61
2022/03/06 08:51:49;;;;;;;13.70;10.50;;;;;;;1.46;64.01;95633.81;4303095;33;20269;-61
2022/03/06 08:54:15;;;;;;;14.63;10.37;;;;;;;1.44;63.45;95634.06;4318079;33;20186;-62
2022/03/06 08:56:41;;;;;;;12.03;9.87;;;;;;;1.49;62.91;95634.16;4302890;33;20190;-62
2022/03/06 08:59:06;;;;;;;13.43;9.50;;;;;;;1.45;61.79;95640.09;4305146;33;20203;-61
2022/03/06 09:01:31;;;;;;;11.73;9.43;;;;;;;1.42;61.99;95632.72;4305447;33;20193;-61
2022/03/06 09:03:56;;;;;;;11.53;9.20;;;;;;;1.59;61.33;95631.00;4318733;33;20194;-62
2022/03/06 09:06:22;;;;;;;11.67;9.50;;;;;;;1.80;60.56;95625.16;4305587;33;20262;-62
2022/03/06 09:08:47;;;;;;;12.27;9.70;;;;;;;1.73;59.90;95620.03;4305260;33;20220;-62
2022/03/06 09:11:12;;;;;;;13.80;9.17;;;;;;;1.79;59.61;95620.16;4320995;33;20205;-62
2022/03/06 09:13:38;;;;;;;11.13;8.63;;;;;;;1.83;59.49;95616.06;4305717;33;20253;-61
2022/03/06 09:16:06;;;;;;;10.93;8.53;;;;;;;1.91;58.95;95621.72;4318568;33;20248;-62
2022/03/06 09:18:31;;;;;;;12.95;9.40;;;;;;;1.80;58.20;95622.53;4318845;33;20194;-61
2022/03/06 09:20:57;;;;;;;12.20;9.83;;;;;;;1.76;58.54;95613.56;4305968;33;20194;-62
2022/03/06 09:23:23;;;;;;;13.47;9.27;;;;;;;1.78;58.43;95621.19;4318727;33;20236;-61
2022/03/06 09:25:49;;;;;;;11.57;8.77;;;;;;;1.93;56.80;95614.44;4304452;33;20186;-62
2022/03/06 09:28:14;;;;;;;10.63;8.57;;;;;;;2.10;55.89;95613.69;4306607;33;20198;-62
2022/03/06 09:30:39;;;;;;;11.17;8.83;;;;;;;2.21;54.61;95618.09;4318817;33;20200;-62
2022/03/06 09:33:05;;;;;;;10.97;7.93;;;;;;;2.19;54.53;95620.16;4304875;33;20200;-62
2022/03/06 09:35:32;;;;;;;12.07;8.23;;;;;;;2.31;52.88;95613.06;4319033;33;20190;-62
2022/03/06 09:37:57;;;;;;;9.30;8.23;;;;;;;2.31;53.01;95616.47;4305372;33;20190;-62
2022/03/06 09:40:23;;;;;;;10.17;8.50;;;;;;;2.52;52.43;95628.09;4318814;33;20213;-62
2022/03/06 09:42:49;;;;;;;15.10;12.17;;;;;;;2.41;52.19;95616.66;4318753;33;20202;-62
2022/03/06 09:45:15;;;;;;;8.88;7.87;;;;;;;2.52;51.76;95609.75;4320318;33;20178;-62
2022/03/06 09:47:44;;;;;;;11.12;7.97;;;;;;;2.63;51.24;95614.16;4303349;33;20202;-62
2022/03/06 09:50:12;;;;;;;9.13;7.90;;;;;;;2.90;49.43;95609.13;4305208;33;20196;-62
2022/03/06 09:52:37;;;;;;;10.48;8.90;;;;;;;2.89;48.77;95615.41;4303812;33;20377;-62
2022/03/06 09:55:03;;;;;;;13.17;9.97;;;;;;;2.82;49.15;95611.31;4317331;33;20202;-62
2022/03/06 09:57:29;;;;;;;9.77;8.02;;;;;;;2.99;48.15;95607.69;4318407;33;20216;-62
2022/03/06 09:59:54;;;;;;;10.43;7.93;;;;;;;3.06;47.98;95608.31;4318364;33;20250;-62
2022/03/06 10:02:20;;;;;;;11.47;8.00;;;;;;;3.13;47.70;95610.75;4316747;33;20198;-61
2022/03/06 10:04:50;;;;;;;11.17;8.27;;;;;;;3.07;47.57;95615.16;4312273;33;20233;-61
2022/03/06 10:07:17;;;;;;;9.18;8.27;;;;;;;3.13;48.13;95613.38;4297281;33;20201;-61
2022/03/06 10:09:50;;;;;;;8.75;7.60;;;;;;;3.21;47.75;95618.25;4317740;33;20198;-61
2022/03/06 10:12:23;;;;;;;11.43;8.88;;;;;;;3.34;47.58;95610.03;4303804;33;20182;-61
2022/03/06 10:14:50;;;;;;;12.07;8.48;;;;;;;3.42;47.15;95609.63;4303023;33;20237;-60
2022/03/06 10:17:24;;;;;;;14.48;11.50;;;;;;;3.44;47.57;95628.53;4312451;33;20178;-61
2022/03/06 10:20:05;;;;;;;12.52;10.23;;;;;;;3.20;46.82;95619.28;4304166;33;20273;-58
2022/03/06 10:22:36;;;;;;;13.70;10.95;;;;;;;3.74;54.08;95611.66;4318285;33;20182;-59
2022/03/06 10:25:07;;;;;;;16.90;10.93;;;;;;;4.52;53.47;95613.06;4306861;33;20186;-59
2022/03/06 10:27:57;;;;;;;16.50;11.40;;;;;;;5.23;49.42;95615.50;4305684;33;20275;-59
2022/03/06 10:30:31;;;;;;;13.17;9.33;;;;;;;5.40;47.73;95616.94;4318292;33;20271;-58
2022/03/06 10:32:59;;;;;;;9.87;8.30;;;;;;;6.34;53.69;95602.97;4295703;33;20334;-59
2022/03/06 10:35:31;;;;;;;9.97;8.33;;;;;;;6.36;47.50;95602.69;4316586;33;20425;-59
2022/03/06 10:37:57;;;;;;;9.00;8.10;;;;;;;6.29;52.47;95608.19;4296386;33;20333;-59
2022/03/06 10:40:34;;;;;;;10.17;8.00;;;;;;;6.05;44.50;95613.13;4317596;33;20275;-59
2022/03/06 10:42:59;;;;;;;10.60;8.07;;;;;;;6.80;53.59;95610.97;4303915;33;20189;-59
2022/03/06 10:45:25;;;;;;;9.57;8.03;;;;;;;6.70;49.70;95609.09;4303864;33;20309;-59
2022/03/06 10:47:50;;;;;;;9.47;8.47;;;;;;;7.35;46.47;95609.38;4311864;33;20182;-59
2022/03/06 10:50:25;;;;;;;8.70;7.87;;;;;;;7.30;40.93;95610.19;4305394;33;20182;-59
2022/03/06 10:52:53;;;;;;;10.37;8.87;;;;;;;6.39;43.21;95608.25;4315975;33;20205;-61
2022/03/06 10:55:34;;;;;;;9.43;8.17;;;;;;;5.95;40.97;95618.34;4303542;33;20271;-61
2022/03/06 10:58:01;;;;;;;8.80;7.90;;;;;;;5.52;40.89;95617.56;4316468;33;20270;-61
2022/03/06 11:00:27;;;;;;;9.47;8.10;;;;;;;4.92;42.17;95619.75;4303474;33;20326;-60
2022/03/06 11:02:53;;;;;;;10.30;8.90;;;;;;;4.71;43.18;95618.75;4317304;33;20325;-60
2022/03/06 11:05:19;;;;;;;9.03;8.13;;;;;;;4.41;43.61;95621.88;4303844;33;20283;-60
2022/03/06 11:07:44;;;;;;;9.00;8.13;;;;;;;4.27;43.90;95628.53;4305000;33;20201;-60
2022/03/06 11:10:12;;;;;;;11.97;8.63;;;;;;;4.00;44.24;95616.16;4317545;33;20221;-60
2022/03/06 11:12:38;;;;;;;9.03;8.13;;;;;;;4.08;44.46;95623.63;4302302;33;20300;-60
2022/03/06 11:15:04;;;;;;;8.60;7.70;;;;;;;4.19;44.03;95616.63;4304740;33;20275;-60
2022/03/06 11:17:30;;;;;;;9.07;8.13;;;;;;;4.14;43.73;95616.59;4317852;33;20229;-60
2022/03/06 11:19:56;;;;;;;9.97;7.83;;;;;;;4.28;43.68;95609.94;4303879;33;20179;-61
2022/03/06 11:22:34;;;;;;;8.77;7.87;;;;;;;4.03;43.64;95601.75;4317662;33;20381;-60